LFKT weather

Corte Airport
Corte, Corsica, France

Public forecast

Using degrees Celsius for public forecast. Weather courtesy of forecast.io.

Closest aviation weather report (METAR) to Corte Airport

Closest report is Bastia-Poretta Airport, 20.2 nm (37.4 km) NE. Retrieved 2020/04/04 08:00 UTC (13 minutes ago):

LFKB 040800Z AUTO 34005KT 270V010 CAVOK 16/04 Q1019 NOSIG

Closest aviation forecast (TAF) to Corte Airport

Closest forecast is Bastia-Poretta Airport, 20.2 nm (37.4 km) NE. Retrieved 2020/04/04 09:24 UTC (0 seconds ago):

TAF LFKB 040800Z 0409/0509 34010KT CAVOK TX18/0413Z TN07/0503Z BECMG 0418/0421 24005KT